Estancia La Primavera, Argentina
Current Conditions -  °F | °C
As of 1:00 AM on Tuesday 21 Oct 2014 (Local Time) from SAZN Reporting Station
Clear Clear  
Wind Chill: 68°   Ceiling: Unl
Heat Index: 68°   Visibility: 6mi
Dew Point: 46°   Wind: 7mph
Humidity: 46%   Direction: 160°SSE
Pressure: 29.91"   Gusts: NA
Location:  38.48°S, 67.46°W
Report Text: SAZN 210400Z 16006KT CAVOK 20/08 Q1013
Loading
Personal Weather Stations






























Interactive Weather Map New forecast layout! Learn more

10-Day Weather Forecast

Advertisements
Track Severe Weather on mobile